createdAt,value
2022-12-23T00:13:57.394Z,87
2022-12-23T00:43:13.689Z,86
2022-12-23T01:12:25.380Z,87
2022-12-23T01:41:43.407Z,88
2022-12-23T02:10:51.163Z,91
2022-12-23T02:40:02.602Z,92
2022-12-23T03:09:21.297Z,91
2022-12-23T03:38:44.123Z,91
2022-12-23T04:08:02.720Z,92
2022-12-23T04:37:20.046Z,92
2022-12-23T05:06:35.205Z,99
2022-12-23T05:35:51.649Z,100
2022-12-23T06:05:04.155Z,100
2022-12-23T06:34:21.772Z,100
2022-12-23T07:03:35.420Z,100
2022-12-23T07:32:47.015Z,100
2022-12-23T08:02:13.803Z,100
2022-12-23T08:31:19.402Z,100
2022-12-23T09:00:23.003Z,100
2022-12-23T09:29:19.429Z,100
2022-12-23T09:58:16.669Z,100
2022-12-23T10:27:28.320Z,100
2022-12-23T10:56:33.199Z,100
2022-12-23T11:25:39.462Z,100
2022-12-23T11:54:44.620Z,100
2022-12-23T12:23:34.486Z,100
2022-12-23T12:52:40.068Z,100
2022-12-23T13:21:58.096Z,100
2022-12-23T13:51:11.123Z,99
2022-12-23T14:20:30.527Z,100
2022-12-23T14:49:46.199Z,100
2022-12-23T15:19:01.829Z,100
2022-12-23T15:48:23.425Z,97
2022-12-23T16:17:39.062Z,95
2022-12-23T16:46:57.423Z,95
2022-12-23T17:16:16.763Z,92
2022-12-23T17:45:37.549Z,96
2022-12-23T18:14:35.319Z,99
2022-12-23T18:43:57.011Z,100
2022-12-23T19:13:16.872Z,99
2022-12-23T19:42:38.790Z,98
2022-12-23T20:11:44.123Z,96
2022-12-23T20:41:04.591Z,88
2022-12-23T21:10:17.958Z,86
2022-12-23T21:39:40.236Z,85
2022-12-23T22:08:54.592Z,84
2022-12-23T22:38:13.504Z,81
2022-12-23T23:07:19.886Z,80
2022-12-23T23:36:37.108Z,79
